East Barre, Vermont
Current Conditions -  °F | °C
As of 1:13 PM on Friday 28 Nov 2014 (Local Time) from KMPV Reporting Station
Light Snow Light Snow  
Wind Chill: 13°   Ceiling: 3400
Heat Index: 22°   Visibility: 7mi
Dew Point: 16°   Wind: 7mph
Humidity: 78%   Direction: 320°NW
Pressure: 30.06"   Gusts: NA
Location:  44.16°N, 72.45°W
Report Text: KMPV 281813Z AUTO 32006KT 7SM -SN BKN034 OVC043 M06/M09 A3006 RMK AO2 SNB13 P0000 T10561089
Loading
Personal Weather Stations






























Interactive Weather Map New forecast layout! Learn more

10-Day Weather Forecast

Advertisements
Track Severe Weather on mobile